createdAt,value
2022-12-27T00:01:56.916Z,2.07
2022-12-27T00:04:34.368Z,2.20
2022-12-27T00:14:19.343Z,1.84
2022-12-27T00:16:59.391Z,1.60
2022-12-27T00:19:34.971Z,1.43
2022-12-27T00:22:09.642Z,1.52
2022-12-27T00:24:42.613Z,1.55
2022-12-27T00:27:16.392Z,2.73
2022-12-27T00:29:49.697Z,1.38
2022-12-27T00:42:40.312Z,1.44
2022-12-27T00:45:20.348Z,1.32
2022-12-27T00:47:53.616Z,1.30
2022-12-27T00:50:27.432Z,1.29
2022-12-27T00:53:00.886Z,1.38
2022-12-27T01:09:16.347Z,1.21
2022-12-27T01:11:49.641Z,1.37
2022-12-27T01:14:23.402Z,1.36
2022-12-27T01:16:56.626Z,1.47
2022-12-27T01:19:30.333Z,1.43
2022-12-27T01:22:04.761Z,1.63
2022-12-27T01:24:41.727Z,1.47
2022-12-27T01:34:31.370Z,1.67
2022-12-27T01:37:12.339Z,1.75
2022-12-27T01:39:47.584Z,1.48
2022-12-27T01:42:23.397Z,1.50
2022-12-27T01:44:57.892Z,1.66
2022-12-27T01:47:42.395Z,1.65
2022-12-27T02:00:56.422Z,1.79
2022-12-27T02:03:45.847Z,1.60
2022-12-27T02:06:28.328Z,1.83
2022-12-27T02:09:10.235Z,2.12
2022-12-27T02:11:55.349Z,2.00
2022-12-27T02:14:33.468Z,2.02
2022-12-27T02:28:03.298Z,2.25
2022-12-27T02:30:46.358Z,2.16
2022-12-27T02:33:29.476Z,2.20
2022-12-27T02:36:17.357Z,2.28
2022-12-27T02:38:56.891Z,2.43
2022-12-27T02:41:41.385Z,2.12
2022-12-27T02:44:15.101Z,2.04
2022-12-27T02:54:25.370Z,2.12
2022-12-27T02:57:19.688Z,2.24
2022-12-27T03:00:17.405Z,2.40
2022-12-27T03:03:27.241Z,2.40
2022-12-27T03:06:53.338Z,2.85
2022-12-27T03:10:07.807Z,2.34
2022-12-27T03:23:13.159Z,2.60
2022-12-27T03:26:00.665Z,2.93
2022-12-27T03:28:37.128Z,3.00
2022-12-27T03:31:27.335Z,3.03
2022-12-27T03:34:09.655Z,3.44
2022-12-27T03:47:49.281Z,3.38
2022-12-27T03:50:42.307Z,3.17
2022-12-27T03:53:24.880Z,3.02
2022-12-27T03:56:05.306Z,3.11
2022-12-27T03:58:38.607Z,3.17
2022-12-27T04:01:12.418Z,3.28
2022-12-27T04:03:45.589Z,2.55
2022-12-27T04:16:37.331Z,2.97
2022-12-27T04:19:18.384Z,2.90
2022-12-27T04:21:51.572Z,2.81
2022-12-27T04:24:25.310Z,2.68
2022-12-27T04:26:58.597Z,2.40
2022-12-27T04:29:33.996Z,2.27
2022-12-27T04:42:46.392Z,2.25
2022-12-27T04:45:20.065Z,2.20
2022-12-27T04:47:53.340Z,1.99
2022-12-27T04:50:30.359Z,2.01
2022-12-27T04:53:16.304Z,1.92
2022-12-27T05:09:53.276Z,1.91
2022-12-27T05:12:33.357Z,1.79
2022-12-27T05:15:08.675Z,1.87
2022-12-27T05:17:42.320Z,2.16
2022-12-27T05:20:15.833Z,1.73
2022-12-27T05:22:49.370Z,1.78
2022-12-27T05:35:47.316Z,1.68
2022-12-27T05:38:20.543Z,1.84
2022-12-27T05:40:54.266Z,1.70
2022-12-27T05:43:29.178Z,1.95
2022-12-27T05:46:08.273Z,1.78
2022-12-27T05:48:41.904Z,1.78
2022-12-27T06:01:41.449Z,1.80
2022-12-27T06:04:21.291Z,1.93
2022-12-27T06:06:54.552Z,1.87
2022-12-27T06:09:28.335Z,1.78
2022-12-27T06:12:01.571Z,1.87
2022-12-27T06:14:35.324Z,1.78
2022-12-27T06:28:22.302Z,1.82
2022-12-27T06:30:57.640Z,1.80
2022-12-27T06:33:32.275Z,1.89
2022-12-27T06:36:07.702Z,1.80
2022-12-27T06:38:42.288Z,1.80
2022-12-27T06:41:18.721Z,1.66
2022-12-27T06:44:04.310Z,1.92
2022-12-27T06:57:14.263Z,1.86
2022-12-27T06:59:53.842Z,1.84
2022-12-27T07:02:34.409Z,1.70
2022-12-27T07:05:08.437Z,1.82
2022-12-27T07:07:41.282Z,1.89
2022-12-27T07:10:14.878Z,1.59
2022-12-27T07:23:05.253Z,1.69
2022-12-27T07:25:45.306Z,1.70
2022-12-27T07:28:18.572Z,1.65
2022-12-27T07:30:52.342Z,1.57
2022-12-27T07:33:25.891Z,1.81
2022-12-27T07:49:41.262Z,1.74
2022-12-27T07:52:19.984Z,1.73
2022-12-27T07:55:00.259Z,1.86
2022-12-27T07:57:33.503Z,1.79
2022-12-27T08:00:07.276Z,1.74
2022-12-27T08:02:40.568Z,1.58
2022-12-27T08:05:16.243Z,1.73
2022-12-27T08:15:22.234Z,1.65
2022-12-27T08:18:02.292Z,1.70
2022-12-27T08:20:37.536Z,1.82
2022-12-27T08:23:11.257Z,1.77
2022-12-27T08:25:48.778Z,1.91
2022-12-27T08:28:29.243Z,1.60
2022-12-27T08:42:08.477Z,1.85
2022-12-27T08:44:41.506Z,1.75
2022-12-27T08:47:15.273Z,1.82
2022-12-27T08:49:48.605Z,1.75
2022-12-27T08:52:22.276Z,2.00
2022-12-27T08:54:55.476Z,1.66
2022-12-27T09:11:18.262Z,1.95
2022-12-27T09:13:51.704Z,1.83
2022-12-27T09:16:28.279Z,2.03
2022-12-27T09:19:03.043Z,1.95
2022-12-27T09:21:39.272Z,1.82
2022-12-27T09:24:13.910Z,2.06
2022-12-27T09:37:04.282Z,2.19
2022-12-27T09:39:44.364Z,1.97
2022-12-27T09:43:02.057Z,1.98
2022-12-27T09:45:44.682Z,2.21
2022-12-27T09:48:33.232Z,2.14
2022-12-27T10:02:14.315Z,2.30
2022-12-27T10:05:19.623Z,2.29
2022-12-27T10:08:22.500Z,2.05
2022-12-27T10:11:16.252Z,2.37
2022-12-27T10:13:59.353Z,1.91
2022-12-27T10:16:51.232Z,2.13
2022-12-27T10:19:41.131Z,2.20
2022-12-27T10:29:27.235Z,2.20
2022-12-27T10:32:00.597Z,2.37
2022-12-27T10:34:34.220Z,2.29
2022-12-27T10:37:14.230Z,2.05
2022-12-27T10:39:54.211Z,2.12
2022-12-27T10:42:45.381Z,2.19
2022-12-27T10:55:50.255Z,1.97
2022-12-27T10:58:46.283Z,1.88
2022-12-27T11:01:25.171Z,1.98
2022-12-27T11:04:21.792Z,2.11
2022-12-27T11:07:12.987Z,2.04
2022-12-27T11:09:54.231Z,2.11
2022-12-27T11:23:10.226Z,2.06
2022-12-27T11:25:54.239Z,2.00
2022-12-27T11:28:42.227Z,2.14
2022-12-27T11:31:27.635Z,1.97
2022-12-27T11:34:14.254Z,2.09
2022-12-27T11:36:53.907Z,1.97
2022-12-27T11:39:50.205Z,2.09
2022-12-27T11:49:42.187Z,2.13
2022-12-27T11:53:02.202Z,2.11
2022-12-27T11:56:09.152Z,2.09
2022-12-27T11:59:30.221Z,2.17
2022-12-27T12:02:38.942Z,2.11
2022-12-27T12:16:30.197Z,2.01
2022-12-27T12:19:34.266Z,2.39
2022-12-27T12:22:44.687Z,2.06
2022-12-27T12:26:19.276Z,2.22
2022-12-27T12:29:17.079Z,2.05
2022-12-27T12:42:53.172Z,2.12
2022-12-27T12:45:59.322Z,1.87
2022-12-27T12:49:01.420Z,1.84
2022-12-27T12:52:21.936Z,1.97
2022-12-27T12:55:22.687Z,1.90
2022-12-27T12:58:25.255Z,1.97
2022-12-27T13:11:48.223Z,2.07
2022-12-27T13:14:51.593Z,1.82
2022-12-27T13:17:44.208Z,1.92
2022-12-27T13:20:49.256Z,2.02
2022-12-27T13:23:48.211Z,1.78
2022-12-27T13:37:22.232Z,1.95
2022-12-27T13:40:41.124Z,2.18
2022-12-27T13:43:54.188Z,2.01
2022-12-27T13:47:07.135Z,2.08
2022-12-27T14:04:40.184Z,1.90
2022-12-27T14:07:51.824Z,1.99
2022-12-27T14:10:43.234Z,2.08
2022-12-27T14:13:23.876Z,2.06
2022-12-27T14:16:35.216Z,2.01
2022-12-27T14:19:52.716Z,2.17
2022-12-27T14:30:08.237Z,2.17
2022-12-27T14:33:26.655Z,1.93
2022-12-27T14:36:40.208Z,1.92
2022-12-27T14:40:04.207Z,2.25
2022-12-27T14:43:40.187Z,2.21
2022-12-27T14:57:09.174Z,2.52
2022-12-27T14:59:56.652Z,2.51
2022-12-27T15:03:21.215Z,2.39
2022-12-27T15:06:09.204Z,2.69
2022-12-27T15:09:07.356Z,2.91
2022-12-27T15:26:08.136Z,2.51
2022-12-27T15:29:23.247Z,2.57
2022-12-27T15:32:11.675Z,2.56
2022-12-27T15:35:10.168Z,2.62
2022-12-27T15:38:12.108Z,2.68
2022-12-27T15:51:37.133Z,2.83
2022-12-27T15:54:53.305Z,2.70
2022-12-27T15:58:03.321Z,2.57
2022-12-27T16:00:45.201Z,2.32
2022-12-27T16:03:35.648Z,2.27
2022-12-27T16:19:45.236Z,2.30
2022-12-27T16:22:36.507Z,2.57
2022-12-27T16:25:35.215Z,2.45
2022-12-27T16:28:24.026Z,2.02
2022-12-27T16:44:59.197Z,2.40
2022-12-27T16:47:56.432Z,2.43
2022-12-27T16:51:06.136Z,2.56
2022-12-27T16:54:04.999Z,2.55
2022-12-27T16:56:45.213Z,2.49
2022-12-27T16:59:56.472Z,2.69
2022-12-27T17:12:52.214Z,3.14
2022-12-27T17:15:35.159Z,3.11
2022-12-27T17:18:27.685Z,2.87
2022-12-27T17:21:13.152Z,3.30
2022-12-27T17:23:50.890Z,3.01
2022-12-27T17:37:22.107Z,2.81
2022-12-27T17:40:23.144Z,3.13
2022-12-27T17:43:15.704Z,2.93
2022-12-27T17:46:15.226Z,2.96
2022-12-27T17:48:51.892Z,2.92
2022-12-27T18:05:24.455Z,3.14
2022-12-27T18:08:04.265Z,3.39
2022-12-27T18:10:45.454Z,3.48
2022-12-27T18:13:23.231Z,3.39
2022-12-27T18:16:04.166Z,3.68
2022-12-27T18:18:38.491Z,3.45
2022-12-27T18:31:35.211Z,3.02
2022-12-27T18:34:30.155Z,3.11
2022-12-27T18:37:08.894Z,3.24
2022-12-27T18:39:58.146Z,3.32
2022-12-27T18:42:36.672Z,3.32
2022-12-27T18:45:29.282Z,3.23
2022-12-27T18:58:41.120Z,3.13
2022-12-27T19:01:38.711Z,3.74
2022-12-27T19:04:30.143Z,3.90
2022-12-27T19:07:11.407Z,3.87
2022-12-27T19:10:00.165Z,3.90
2022-12-27T19:26:31.932Z,3.53
2022-12-27T19:29:13.142Z,3.64
2022-12-27T19:31:56.065Z,3.58
2022-12-27T19:34:47.126Z,3.55
2022-12-27T19:37:25.573Z,3.40
2022-12-27T19:40:06.129Z,3.49
2022-12-27T19:53:23.093Z,3.95
2022-12-27T19:55:56.528Z,3.94
2022-12-27T19:58:33.123Z,3.59
2022-12-27T20:01:06.514Z,3.71
2022-12-27T20:03:40.113Z,4.06
2022-12-27T20:20:09.435Z,5.34
2022-12-27T20:22:43.120Z,5.48
2022-12-27T20:25:16.759Z,5.45
2022-12-27T20:27:50.111Z,5.62
2022-12-27T20:30:23.471Z,5.67
2022-12-27T20:32:57.104Z,5.49
2022-12-27T20:35:32.598Z,5.69
2022-12-27T20:44:56.213Z,5.76
2022-12-27T20:47:29.385Z,6.11
2022-12-27T20:50:03.101Z,5.68
2022-12-27T20:52:38.460Z,5.23
2022-12-27T20:55:13.132Z,5.53
2022-12-27T20:57:46.525Z,4.84
2022-12-27T21:00:22.109Z,4.41
2022-12-27T21:13:34.099Z,4.88
2022-12-27T21:16:11.827Z,4.71
2022-12-27T21:18:54.085Z,4.74
2022-12-27T21:21:28.689Z,5.01
2022-12-27T21:24:03.107Z,4.75
2022-12-27T21:37:57.075Z,4.80
2022-12-27T21:40:30.372Z,4.88
2022-12-27T21:43:04.111Z,5.04
2022-12-27T21:45:37.376Z,5.46
2022-12-27T21:48:11.091Z,5.49
2022-12-27T21:50:45.449Z,5.39
2022-12-27T21:53:21.112Z,5.71
2022-12-27T22:06:34.100Z,5.23
2022-12-27T22:09:11.021Z,4.95
2022-12-27T22:11:51.163Z,5.10
2022-12-27T22:14:25.704Z,4.78
2022-12-27T22:17:00.114Z,5.03
2022-12-27T22:19:33.423Z,5.00
2022-12-27T22:32:24.126Z,4.86
2022-12-27T22:35:04.104Z,4.91
2022-12-27T22:37:37.285Z,4.91
2022-12-27T22:40:30.722Z,5.27
2022-12-27T22:43:04.764Z,4.95
2022-12-27T22:45:38.089Z,4.83
2022-12-27T22:58:50.148Z,5.06
2022-12-27T23:01:29.592Z,4.96
2022-12-27T23:04:13.300Z,5.26
2022-12-27T23:06:46.467Z,5.16
2022-12-27T23:09:20.065Z,5.17
2022-12-27T23:11:53.372Z,5.35
2022-12-27T23:14:29.069Z,4.85
2022-12-27T23:25:02.200Z,5.04
2022-12-27T23:27:43.008Z,4.87
2022-12-27T23:30:18.539Z,4.90
2022-12-27T23:32:52.098Z,4.71
2022-12-27T23:35:25.370Z,4.87
2022-12-27T23:37:59.084Z,4.71
2022-12-27T23:40:33.227Z,4.64
2022-12-27T23:53:23.093Z,4.52
2022-12-27T23:56:04.073Z,4.30
2022-12-27T23:58:37.317Z,4.32
